sensor_id;sensor_type;location;lat;lon;timestamp;P1;durP1;ratioP1;P2;durP2;ratioP2
79526;SDS011;68974;47.754;-3.364;2024-02-21T00:00:39;4.47;;;1.20;;
79526;SDS011;68974;47.754;-3.364;2024-02-21T00:03:05;6.78;;;1.48;;
79526;SDS011;68974;47.754;-3.364;2024-02-21T00:05:31;9.40;;;1.55;;
79526;SDS011;68974;47.754;-3.364;2024-02-21T00:07:58;4.22;;;1.05;;
79526;SDS011;68974;47.754;-3.364;2024-02-21T00:10:24;5.32;;;1.25;;
79526;SDS011;68974;47.754;-3.364;2024-02-21T00:12:50;3.20;;;1.27;;
79526;SDS011;68974;47.754;-3.364;2024-02-21T00:15:16;8.90;;;1.92;;
79526;SDS011;68974;47.754;-3.364;2024-02-21T00:17:43;9.52;;;1.27;;
79526;SDS011;68974;47.754;-3.364;2024-02-21T00:20:09;14.80;;;1.58;;
79526;SDS011;68974;47.754;-3.364;2024-02-21T00:22:35;8.80;;;2.15;;
79526;SDS011;68974;47.754;-3.364;2024-02-21T00:25:01;6.85;;;1.65;;
79526;SDS011;68974;47.754;-3.364;2024-02-21T00:27:28;9.20;;;1.15;;
79526;SDS011;68974;47.754;-3.364;2024-02-21T00:29:53;5.40;;;1.23;;
79526;SDS011;68974;47.754;-3.364;2024-02-21T00:32:19;5.90;;;1.30;;
79526;SDS011;68974;47.754;-3.364;2024-02-21T00:34:44;12.38;;;1.35;;
79526;SDS011;68974;47.754;-3.364;2024-02-21T00:37:10;8.50;;;1.42;;
79526;SDS011;68974;47.754;-3.364;2024-02-21T00:39:35;6.35;;;0.95;;
79526;SDS011;68974;47.754;-3.364;2024-02-21T00:42:02;6.32;;;1.27;;
79526;SDS011;68974;47.754;-3.364;2024-02-21T00:44:27;9.18;;;1.30;;
79526;SDS011;68974;47.754;-3.364;2024-02-21T00:46:53;12.30;;;1.20;;
79526;SDS011;68974;47.754;-3.364;2024-02-21T00:49:18;5.70;;;1.85;;
79526;SDS011;68974;47.754;-3.364;2024-02-21T00:51:44;9.48;;;1.23;;
79526;SDS011;68974;47.754;-3.364;2024-02-21T00:54:09;3.42;;;0.98;;
79526;SDS011;68974;47.754;-3.364;2024-02-21T00:56:35;3.05;;;0.85;;
79526;SDS011;68974;47.754;-3.364;2024-02-21T00:59:00;6.25;;;1.33;;
79526;SDS011;68974;47.754;-3.364;2024-02-21T01:01:25;11.90;;;1.67;;
79526;SDS011;68974;47.754;-3.364;2024-02-21T01:03:51;10.35;;;1.20;;
79526;SDS011;68974;47.754;-3.364;2024-02-21T01:06:19;6.47;;;1.42;;
79526;SDS011;68974;47.754;-3.364;2024-02-21T01:08:46;6.18;;;1.02;;
79526;SDS011;68974;47.754;-3.364;2024-02-21T01:11:13;6.28;;;0.93;;
79526;SDS011;68974;47.754;-3.364;2024-02-21T01:13:39;7.15;;;1.10;;
79526;SDS011;68974;47.754;-3.364;2024-02-21T01:16:04;7.78;;;1.40;;
79526;SDS011;68974;47.754;-3.364;2024-02-21T01:18:31;5.07;;;1.58;;
79526;SDS011;68974;47.754;-3.364;2024-02-21T01:20:59;6.72;;;1.45;;
79526;SDS011;68974;47.754;-3.364;2024-02-21T01:23:25;4.88;;;1.10;;
79526;SDS011;68974;47.754;-3.364;2024-02-21T01:25:51;9.27;;;1.67;;
79526;SDS011;68974;47.754;-3.364;2024-02-21T01:28:17;5.18;;;0.90;;
79526;SDS011;68974;47.754;-3.364;2024-02-21T01:30:43;7.32;;;1.40;;
79526;SDS011;68974;47.754;-3.364;2024-02-21T01:33:09;4.63;;;1.20;;
79526;SDS011;68974;47.754;-3.364;2024-02-21T01:35:35;9.93;;;1.38;;
79526;SDS011;68974;47.754;-3.364;2024-02-21T01:38:02;8.70;;;1.92;;
79526;SDS011;68974;47.754;-3.364;2024-02-21T01:40:27;8.48;;;1.38;;
79526;SDS011;68974;47.754;-3.364;2024-02-21T01:42:54;5.85;;;1.00;;
79526;SDS011;68974;47.754;-3.364;2024-02-21T01:45:20;8.88;;;1.30;;
79526;SDS011;68974;47.754;-3.364;2024-02-21T01:47:46;5.75;;;1.55;;
79526;SDS011;68974;47.754;-3.364;2024-02-21T01:50:13;8.73;;;1.60;;
79526;SDS011;68974;47.754;-3.364;2024-02-21T01:52:40;10.25;;;2.00;;
79526;SDS011;68974;47.754;-3.364;2024-02-21T01:55:07;12.45;;;1.20;;
79526;SDS011;68974;47.754;-3.364;2024-02-21T01:57:34;7.75;;;1.15;;
79526;SDS011;68974;47.754;-3.364;2024-02-21T01:59:59;7.22;;;1.33;;
79526;SDS011;68974;47.754;-3.364;2024-02-21T02:02:25;9.27;;;1.55;;
79526;SDS011;68974;47.754;-3.364;2024-02-21T02:04:51;8.85;;;1.30;;
79526;SDS011;68974;47.754;-3.364;2024-02-21T02:07:17;8.63;;;1.38;;
79526;SDS011;68974;47.754;-3.364;2024-02-21T02:09:43;6.80;;;1.67;;
79526;SDS011;68974;47.754;-3.364;2024-02-21T02:12:08;7.32;;;1.20;;
79526;SDS011;68974;47.754;-3.364;2024-02-21T02:14:34;7.60;;;2.95;;
79526;SDS011;68974;47.754;-3.364;2024-02-21T02:16:59;15.63;;;2.80;;
79526;SDS011;68974;47.754;-3.364;2024-02-21T02:19:25;14.20;;;1.77;;
79526;SDS011;68974;47.754;-3.364;2024-02-21T02:21:51;6.85;;;1.45;;
79526;SDS011;68974;47.754;-3.364;2024-02-21T02:24:22;7.82;;;1.77;;
79526;SDS011;68974;47.754;-3.364;2024-02-21T02:26:50;8.93;;;2.15;;
79526;SDS011;68974;47.754;-3.364;2024-02-21T02:29:15;5.90;;;1.10;;
79526;SDS011;68974;47.754;-3.364;2024-02-21T02:31:41;7.82;;;1.40;;
79526;SDS011;68974;47.754;-3.364;2024-02-21T02:34:07;10.57;;;2.95;;
79526;SDS011;68974;47.754;-3.364;2024-02-21T02:36:33;8.27;;;1.20;;
79526;SDS011;68974;47.754;-3.364;2024-02-21T02:38:58;8.60;;;1.60;;
79526;SDS011;68974;47.754;-3.364;2024-02-21T02:41:24;9.57;;;1.55;;
79526;SDS011;68974;47.754;-3.364;2024-02-21T02:43:50;5.38;;;1.38;;
79526;SDS011;68974;47.754;-3.364;2024-02-21T02:46:15;7.38;;;1.90;;
79526;SDS011;68974;47.754;-3.364;2024-02-21T02:48:41;10.93;;;1.70;;
79526;SDS011;68974;47.754;-3.364;2024-02-21T02:51:06;10.93;;;2.03;;
79526;SDS011;68974;47.754;-3.364;2024-02-21T02:53:32;8.57;;;1.45;;
79526;SDS011;68974;47.754;-3.364;2024-02-21T02:55:57;4.75;;;1.10;;
79526;SDS011;68974;47.754;-3.364;2024-02-21T02:58:23;16.67;;;1.85;;
79526;SDS011;68974;47.754;-3.364;2024-02-21T03:00:48;8.48;;;1.50;;
79526;SDS011;68974;47.754;-3.364;2024-02-21T03:03:14;10.52;;;2.10;;
79526;SDS011;68974;47.754;-3.364;2024-02-21T03:05:39;4.93;;;1.27;;
79526;SDS011;68974;47.754;-3.364;2024-02-21T03:08:05;11.07;;;2.03;;
79526;SDS011;68974;47.754;-3.364;2024-02-21T03:10:32;7.53;;;2.35;;
79526;SDS011;68974;47.754;-3.364;2024-02-21T03:12:58;6.43;;;1.35;;
79526;SDS011;68974;47.754;-3.364;2024-02-21T03:15:24;11.40;;;2.10;;
79526;SDS011;68974;47.754;-3.364;2024-02-21T03:17:49;11.43;;;1.63;;
79526;SDS011;68974;47.754;-3.364;2024-02-21T03:20:15;6.68;;;1.52;;
79526;SDS011;68974;47.754;-3.364;2024-02-21T03:22:41;12.25;;;1.55;;
79526;SDS011;68974;47.754;-3.364;2024-02-21T03:25:07;13.13;;;1.58;;
79526;SDS011;68974;47.754;-3.364;2024-02-21T03:27:34;12.57;;;1.77;;
79526;SDS011;68974;47.754;-3.364;2024-02-21T03:29:59;12.82;;;1.92;;
79526;SDS011;68974;47.754;-3.364;2024-02-21T03:32:25;15.88;;;2.90;;
79526;SDS011;68974;47.754;-3.364;2024-02-21T03:34:50;12.55;;;1.90;;
79526;SDS011;68974;47.754;-3.364;2024-02-21T03:37:16;7.57;;;1.67;;
79526;SDS011;68974;47.754;-3.364;2024-02-21T03:39:41;10.48;;;1.65;;
79526;SDS011;68974;47.754;-3.364;2024-02-21T03:42:07;15.85;;;1.95;;
79526;SDS011;68974;47.754;-3.364;2024-02-21T03:44:32;11.68;;;2.33;;
79526;SDS011;68974;47.754;-3.364;2024-02-21T03:47:00;5.20;;;1.92;;
79526;SDS011;68974;47.754;-3.364;2024-02-21T03:49:26;9.40;;;2.00;;
79526;SDS011;68974;47.754;-3.364;2024-02-21T03:51:52;14.07;;;2.63;;
79526;SDS011;68974;47.754;-3.364;2024-02-21T03:54:17;8.38;;;2.20;;
79526;SDS011;68974;47.754;-3.364;2024-02-21T03:56:43;13.73;;;3.75;;
79526;SDS011;68974;47.754;-3.364;2024-02-21T03:59:09;13.55;;;3.63;;
79526;SDS011;68974;47.754;-3.364;2024-02-21T04:01:34;14.98;;;2.95;;
79526;SDS011;68974;47.754;-3.364;2024-02-21T04:04:00;13.07;;;2.55;;
79526;SDS011;68974;47.754;-3.364;2024-02-21T04:06:26;8.25;;;2.17;;
79526;SDS011;68974;47.754;-3.364;2024-02-21T04:08:52;10.73;;;2.00;;
79526;SDS011;68974;47.754;-3.364;2024-02-21T04:11:17;12.90;;;2.38;;
79526;SDS011;68974;47.754;-3.364;2024-02-21T04:13:44;9.02;;;1.83;;
79526;SDS011;68974;47.754;-3.364;2024-02-21T04:16:10;10.40;;;1.88;;
79526;SDS011;68974;47.754;-3.364;2024-02-21T04:18:35;8.20;;;1.70;;
79526;SDS011;68974;47.754;-3.364;2024-02-21T04:21:01;6.95;;;2.28;;
79526;SDS011;68974;47.754;-3.364;2024-02-21T04:23:26;7.10;;;1.40;;
79526;SDS011;68974;47.754;-3.364;2024-02-21T04:25:52;13.10;;;2.70;;
79526;SDS011;68974;47.754;-3.364;2024-02-21T04:28:17;14.20;;;2.33;;
79526;SDS011;68974;47.754;-3.364;2024-02-21T04:30:43;6.30;;;2.05;;
79526;SDS011;68974;47.754;-3.364;2024-02-21T04:33:08;10.48;;;1.80;;
79526;SDS011;68974;47.754;-3.364;2024-02-21T04:35:35;13.90;;;2.20;;
79526;SDS011;68974;47.754;-3.364;2024-02-21T04:40:26;4.47;;;1.53;;
79526;SDS011;68974;47.754;-3.364;2024-02-21T04:42:52;10.55;;;1.60;;
79526;SDS011;68974;47.754;-3.364;2024-02-21T04:45:17;12.30;;;2.33;;
79526;SDS011;68974;47.754;-3.364;2024-02-21T04:47:43;7.97;;;1.98;;
79526;SDS011;68974;47.754;-3.364;2024-02-21T04:50:08;10.73;;;1.30;;
79526;SDS011;68974;47.754;-3.364;2024-02-21T04:52:34;12.52;;;1.95;;
79526;SDS011;68974;47.754;-3.364;2024-02-21T04:55:01;6.18;;;1.30;;
79526;SDS011;68974;47.754;-3.364;2024-02-21T04:57:26;11.02;;;2.00;;
79526;SDS011;68974;47.754;-3.364;2024-02-21T04:59:51;15.23;;;2.35;;
79526;SDS011;68974;47.754;-3.364;2024-02-21T05:02:17;17.20;;;3.83;;
79526;SDS011;68974;47.754;-3.364;2024-02-21T05:04:44;9.73;;;2.00;;
79526;SDS011;68974;47.754;-3.364;2024-02-21T05:07:10;9.68;;;1.75;;
79526;SDS011;68974;47.754;-3.364;2024-02-21T05:09:36;10.60;;;2.95;;
79526;SDS011;68974;47.754;-3.364;2024-02-21T05:12:02;12.68;;;1.98;;
79526;SDS011;68974;47.754;-3.364;2024-02-21T05:14:28;15.23;;;2.30;;
79526;SDS011;68974;47.754;-3.364;2024-02-21T05:16:53;17.15;;;1.90;;
79526;SDS011;68974;47.754;-3.364;2024-02-21T05:19:19;10.90;;;1.60;;
79526;SDS011;68974;47.754;-3.364;2024-02-21T05:21:45;9.75;;;2.25;;
79526;SDS011;68974;47.754;-3.364;2024-02-21T05:24:10;10.90;;;1.52;;
79526;SDS011;68974;47.754;-3.364;2024-02-21T05:26:36;11.43;;;2.05;;
79526;SDS011;68974;47.754;-3.364;2024-02-21T05:29:02;16.83;;;3.30;;
79526;SDS011;68974;47.754;-3.364;2024-02-21T05:31:42;9.18;;;1.90;;
79526;SDS011;68974;47.754;-3.364;2024-02-21T05:34:18;15.65;;;5.55;;
79526;SDS011;68974;47.754;-3.364;2024-02-21T05:36:43;11.93;;;3.78;;
79526;SDS011;68974;47.754;-3.364;2024-02-21T05:39:09;12.35;;;2.08;;
79526;SDS011;68974;47.754;-3.364;2024-02-21T05:41:34;12.93;;;3.30;;
79526;SDS011;68974;47.754;-3.364;2024-02-21T05:44:00;10.98;;;2.25;;
79526;SDS011;68974;47.754;-3.364;2024-02-21T05:46:26;11.50;;;1.98;;
79526;SDS011;68974;47.754;-3.364;2024-02-21T05:48:51;11.18;;;2.63;;
79526;SDS011;68974;47.754;-3.364;2024-02-21T05:51:17;27.27;;;3.45;;
79526;SDS011;68974;47.754;-3.364;2024-02-21T05:53:42;9.40;;;2.33;;
79526;SDS011;68974;47.754;-3.364;2024-02-21T05:56:11;16.02;;;2.20;;
79526;SDS011;68974;47.754;-3.364;2024-02-21T05:58:37;10.00;;;1.42;;
79526;SDS011;68974;47.754;-3.364;2024-02-21T06:01:02;8.32;;;1.52;;
79526;SDS011;68974;47.754;-3.364;2024-02-21T06:03:29;14.55;;;1.90;;
79526;SDS011;68974;47.754;-3.364;2024-02-21T06:05:55;8.02;;;1.67;;
79526;SDS011;68974;47.754;-3.364;2024-02-21T06:08:20;9.52;;;1.85;;
79526;SDS011;68974;47.754;-3.364;2024-02-21T06:10:46;11.07;;;1.85;;
79526;SDS011;68974;47.754;-3.364;2024-02-21T06:13:13;10.52;;;2.13;;
79526;SDS011;68974;47.754;-3.364;2024-02-21T06:15:39;11.27;;;2.15;;
79526;SDS011;68974;47.754;-3.364;2024-02-21T06:18:04;9.60;;;2.08;;
79526;SDS011;68974;47.754;-3.364;2024-02-21T06:20:30;7.95;;;1.88;;
79526;SDS011;68974;47.754;-3.364;2024-02-21T06:22:55;7.38;;;1.85;;
79526;SDS011;68974;47.754;-3.364;2024-02-21T06:25:21;11.43;;;2.03;;
79526;SDS011;68974;47.754;-3.364;2024-02-21T06:27:46;12.88;;;2.45;;
79526;SDS011;68974;47.754;-3.364;2024-02-21T06:30:12;10.93;;;2.53;;
79526;SDS011;68974;47.754;-3.364;2024-02-21T06:32:37;12.73;;;2.17;;
79526;SDS011;68974;47.754;-3.364;2024-02-21T06:35:03;10.98;;;2.58;;
79526;SDS011;68974;47.754;-3.364;2024-02-21T06:37:30;14.15;;;2.13;;
79526;SDS011;68974;47.754;-3.364;2024-02-21T06:39:57;11.02;;;1.63;;
79526;SDS011;68974;47.754;-3.364;2024-02-21T06:42:24;11.73;;;2.83;;
79526;SDS011;68974;47.754;-3.364;2024-02-21T06:44:50;9.80;;;2.55;;
79526;SDS011;68974;47.754;-3.364;2024-02-21T06:47:15;12.23;;;4.45;;
79526;SDS011;68974;47.754;-3.364;2024-02-21T06:49:40;18.08;;;4.38;;
79526;SDS011;68974;47.754;-3.364;2024-02-21T06:52:07;11.18;;;1.67;;
79526;SDS011;68974;47.754;-3.364;2024-02-21T06:54:32;9.95;;;1.85;;
79526;SDS011;68974;47.754;-3.364;2024-02-21T06:56:58;11.07;;;2.40;;
79526;SDS011;68974;47.754;-3.364;2024-02-21T06:59:23;14.93;;;2.90;;
79526;SDS011;68974;47.754;-3.364;2024-02-21T07:01:49;11.95;;;1.75;;
79526;SDS011;68974;47.754;-3.364;2024-02-21T07:04:17;9.55;;;2.20;;
79526;SDS011;68974;47.754;-3.364;2024-02-21T07:06:42;11.63;;;1.92;;
79526;SDS011;68974;47.754;-3.364;2024-02-21T07:09:08;12.60;;;2.42;;
79526;SDS011;68974;47.754;-3.364;2024-02-21T07:11:33;13.80;;;3.20;;
79526;SDS011;68974;47.754;-3.364;2024-02-21T07:13:59;12.15;;;2.33;;
79526;SDS011;68974;47.754;-3.364;2024-02-21T07:16:24;14.50;;;3.03;;
79526;SDS011;68974;47.754;-3.364;2024-02-21T07:18:51;11.35;;;1.77;;
79526;SDS011;68974;47.754;-3.364;2024-02-21T07:21:17;16.08;;;2.30;;
79526;SDS011;68974;47.754;-3.364;2024-02-21T07:23:42;17.58;;;2.72;;
79526;SDS011;68974;47.754;-3.364;2024-02-21T07:26:08;14.63;;;3.10;;
79526;SDS011;68974;47.754;-3.364;2024-02-21T07:28:33;13.00;;;2.70;;
79526;SDS011;68974;47.754;-3.364;2024-02-21T07:30:59;10.60;;;3.30;;
79526;SDS011;68974;47.754;-3.364;2024-02-21T07:33:25;12.75;;;2.95;;
79526;SDS011;68974;47.754;-3.364;2024-02-21T07:35:50;12.50;;;2.58;;
79526;SDS011;68974;47.754;-3.364;2024-02-21T07:38:16;17.73;;;3.03;;
79526;SDS011;68974;47.754;-3.364;2024-02-21T07:40:46;17.02;;;3.55;;
79526;SDS011;68974;47.754;-3.364;2024-02-21T07:43:11;15.52;;;3.13;;
79526;SDS011;68974;47.754;-3.364;2024-02-21T07:45:37;12.88;;;3.53;;
79526;SDS011;68974;47.754;-3.364;2024-02-21T07:48:04;14.43;;;2.83;;
79526;SDS011;68974;47.754;-3.364;2024-02-21T07:50:30;14.68;;;3.75;;
79526;SDS011;68974;47.754;-3.364;2024-02-21T07:52:56;15.55;;;3.58;;
79526;SDS011;68974;47.754;-3.364;2024-02-21T07:55:21;15.82;;;3.50;;
79526;SDS011;68974;47.754;-3.364;2024-02-21T07:57:47;13.63;;;3.60;;
79526;SDS011;68974;47.754;-3.364;2024-02-21T08:00:12;18.92;;;3.80;;
79526;SDS011;68974;47.754;-3.364;2024-02-21T08:02:44;17.60;;;4.18;;
79526;SDS011;68974;47.754;-3.364;2024-02-21T08:05:19;23.70;;;5.85;;
79526;SDS011;68974;47.754;-3.364;2024-02-21T08:07:44;22.80;;;5.45;;
79526;SDS011;68974;47.754;-3.364;2024-02-21T08:10:10;16.63;;;3.72;;
79526;SDS011;68974;47.754;-3.364;2024-02-21T08:12:35;13.95;;;3.90;;
79526;SDS011;68974;47.754;-3.364;2024-02-21T08:15:01;9.95;;;3.78;;
79526;SDS011;68974;47.754;-3.364;2024-02-21T08:17:28;16.52;;;3.97;;
79526;SDS011;68974;47.754;-3.364;2024-02-21T08:19:54;12.38;;;3.33;;
79526;SDS011;68974;47.754;-3.364;2024-02-21T08:22:19;15.13;;;3.67;;
79526;SDS011;68974;47.754;-3.364;2024-02-21T08:24:45;15.10;;;4.70;;
79526;SDS011;68974;47.754;-3.364;2024-02-21T08:27:11;14.45;;;4.22;;
79526;SDS011;68974;47.754;-3.364;2024-02-21T08:29:36;16.90;;;4.03;;
79526;SDS011;68974;47.754;-3.364;2024-02-21T08:32:02;13.32;;;3.75;;
79526;SDS011;68974;47.754;-3.364;2024-02-21T08:34:27;14.35;;;3.17;;
79526;SDS011;68974;47.754;-3.364;2024-02-21T08:36:55;16.20;;;4.05;;
79526;SDS011;68974;47.754;-3.364;2024-02-21T08:39:20;10.82;;;3.95;;
79526;SDS011;68974;47.754;-3.364;2024-02-21T08:41:46;14.77;;;4.68;;
79526;SDS011;68974;47.754;-3.364;2024-02-21T08:44:11;14.00;;;3.95;;
79526;SDS011;68974;47.754;-3.364;2024-02-21T08:46:37;14.65;;;4.30;;
79526;SDS011;68974;47.754;-3.364;2024-02-21T08:49:05;15.45;;;4.20;;
79526;SDS011;68974;47.754;-3.364;2024-02-21T08:51:31;19.45;;;4.53;;
79526;SDS011;68974;47.754;-3.364;2024-02-21T08:53:58;16.98;;;4.35;;
79526;SDS011;68974;47.754;-3.364;2024-02-21T08:56:25;14.68;;;3.67;;
79526;SDS011;68974;47.754;-3.364;2024-02-21T08:58:50;9.35;;;3.60;;
79526;SDS011;68974;47.754;-3.364;2024-02-21T09:01:16;23.95;;;4.50;;
79526;SDS011;68974;47.754;-3.364;2024-02-21T09:03:41;18.23;;;5.55;;
79526;SDS011;68974;47.754;-3.364;2024-02-21T09:06:07;16.65;;;4.78;;
79526;SDS011;68974;47.754;-3.364;2024-02-21T09:08:33;13.93;;;4.18;;
79526;SDS011;68974;47.754;-3.364;2024-02-21T09:11:02;13.75;;;4.40;;
79526;SDS011;68974;47.754;-3.364;2024-02-21T09:13:28;14.40;;;4.70;;
79526;SDS011;68974;47.754;-3.364;2024-02-21T09:15:53;14.10;;;4.90;;
79526;SDS011;68974;47.754;-3.364;2024-02-21T09:18:19;16.35;;;5.10;;
79526;SDS011;68974;47.754;-3.364;2024-02-21T09:20:44;13.20;;;4.40;;
79526;SDS011;68974;47.754;-3.364;2024-02-21T09:23:10;10.15;;;4.07;;
79526;SDS011;68974;47.754;-3.364;2024-02-21T09:25:37;9.60;;;3.80;;
79526;SDS011;68974;47.754;-3.364;2024-02-21T09:28:02;20.73;;;4.50;;
79526;SDS011;68974;47.754;-3.364;2024-02-21T09:30:28;15.55;;;4.30;;
79526;SDS011;68974;47.754;-3.364;2024-02-21T09:32:54;14.90;;;5.15;;
79526;SDS011;68974;47.754;-3.364;2024-02-21T09:35:20;14.93;;;3.30;;
79526;SDS011;68974;47.754;-3.364;2024-02-21T09:37:48;10.02;;;3.30;;
79526;SDS011;68974;47.754;-3.364;2024-02-21T09:40:15;10.55;;;3.30;;
79526;SDS011;68974;47.754;-3.364;2024-02-21T09:42:42;13.00;;;3.97;;
79526;SDS011;68974;47.754;-3.364;2024-02-21T09:45:08;9.60;;;3.03;;
79526;SDS011;68974;47.754;-3.364;2024-02-21T09:47:50;11.68;;;3.78;;
79526;SDS011;68974;47.754;-3.364;2024-02-21T09:50:27;11.77;;;2.47;;
79526;SDS011;68974;47.754;-3.364;2024-02-21T09:52:56;12.18;;;2.67;;
79526;SDS011;68974;47.754;-3.364;2024-02-21T09:55:23;8.82;;;3.55;;
79526;SDS011;68974;47.754;-3.364;2024-02-21T09:57:52;11.63;;;2.35;;
79526;SDS011;68974;47.754;-3.364;2024-02-21T10:00:18;10.38;;;2.70;;
79526;SDS011;68974;47.754;-3.364;2024-02-21T10:02:49;8.10;;;3.40;;
79526;SDS011;68974;47.754;-3.364;2024-02-21T10:05:15;9.20;;;2.90;;
79526;SDS011;68974;47.754;-3.364;2024-02-21T10:07:42;9.00;;;3.33;;
79526;SDS011;68974;47.754;-3.364;2024-02-21T10:10:08;12.32;;;2.90;;
79526;SDS011;68974;47.754;-3.364;2024-02-21T10:12:34;17.73;;;3.40;;
79526;SDS011;68974;47.754;-3.364;2024-02-21T10:15:03;12.20;;;3.00;;
79526;SDS011;68974;47.754;-3.364;2024-02-21T10:17:30;14.35;;;3.92;;
79526;SDS011;68974;47.754;-3.364;2024-02-21T10:20:06;13.23;;;3.92;;
79526;SDS011;68974;47.754;-3.364;2024-02-21T10:22:35;15.27;;;3.25;;
79526;SDS011;68974;47.754;-3.364;2024-02-21T10:25:08;11.80;;;3.40;;
79526;SDS011;68974;47.754;-3.364;2024-02-21T10:27:34;11.18;;;3.53;;
79526;SDS011;68974;47.754;-3.364;2024-02-21T10:30:00;9.55;;;3.58;;
79526;SDS011;68974;47.754;-3.364;2024-02-21T10:32:26;14.23;;;3.72;;
79526;SDS011;68974;47.754;-3.364;2024-02-21T10:35:00;12.45;;;3.42;;
79526;SDS011;68974;47.754;-3.364;2024-02-21T10:37:32;13.60;;;3.30;;
79526;SDS011;68974;47.754;-3.364;2024-02-21T10:39:58;14.07;;;3.03;;
79526;SDS011;68974;47.754;-3.364;2024-02-21T10:42:25;19.95;;;4.78;;
79526;SDS011;68974;47.754;-3.364;2024-02-21T10:45:00;17.60;;;3.97;;
79526;SDS011;68974;47.754;-3.364;2024-02-21T10:47:29;15.15;;;3.83;;
79526;SDS011;68974;47.754;-3.364;2024-02-21T10:49:57;12.50;;;3.33;;
79526;SDS011;68974;47.754;-3.364;2024-02-21T10:55:03;10.43;;;2.90;;
79526;SDS011;68974;47.754;-3.364;2024-02-21T10:57:34;11.52;;;2.80;;
79526;SDS011;68974;47.754;-3.364;2024-02-21T11:00:03;13.13;;;3.60;;
79526;SDS011;68974;47.754;-3.364;2024-02-21T11:02:33;8.70;;;3.45;;
79526;SDS011;68974;47.754;-3.364;2024-02-21T11:04:59;12.15;;;3.25;;
79526;SDS011;68974;47.754;-3.364;2024-02-21T11:07:26;7.88;;;2.88;;
79526;SDS011;68974;47.754;-3.364;2024-02-21T11:09:52;11.60;;;3.88;;
79526;SDS011;68974;47.754;-3.364;2024-02-21T11:12:20;14.90;;;2.90;;
79526;SDS011;68974;47.754;-3.364;2024-02-21T11:14:46;10.02;;;3.15;;
79526;SDS011;68974;47.754;-3.364;2024-02-21T11:17:19;15.38;;;3.33;;
79526;SDS011;68974;47.754;-3.364;2024-02-21T11:19:51;12.45;;;3.70;;
79526;SDS011;68974;47.754;-3.364;2024-02-21T11:22:17;11.57;;;3.20;;
79526;SDS011;68974;47.754;-3.364;2024-02-21T11:27:16;18.50;;;4.95;;
79526;SDS011;68974;47.754;-3.364;2024-02-21T11:29:54;14.75;;;3.20;;
79526;SDS011;68974;47.754;-3.364;2024-02-21T11:32:20;11.20;;;3.50;;
79526;SDS011;68974;47.754;-3.364;2024-02-21T11:35:47;18.60;;;6.57;;
79526;SDS011;68974;47.754;-3.364;2024-02-21T11:37:45;21.65;;;4.13;;
79526;SDS011;68974;47.754;-3.364;2024-02-21T11:40:11;14.63;;;3.50;;
79526;SDS011;68974;47.754;-3.364;2024-02-21T11:42:37;15.85;;;5.00;;
79526;SDS011;68974;47.754;-3.364;2024-02-21T11:45:03;20.17;;;4.32;;
79526;SDS011;68974;47.754;-3.364;2024-02-21T11:47:29;19.63;;;3.70;;
79526;SDS011;68974;47.754;-3.364;2024-02-21T11:49:54;22.65;;;4.00;;
79526;SDS011;68974;47.754;-3.364;2024-02-21T11:52:23;26.58;;;4.10;;
79526;SDS011;68974;47.754;-3.364;2024-02-21T11:54:53;18.77;;;3.75;;
79526;SDS011;68974;47.754;-3.364;2024-02-21T11:57:19;22.75;;;3.83;;
79526;SDS011;68974;47.754;-3.364;2024-02-21T11:59:45;14.50;;;4.38;;
79526;SDS011;68974;47.754;-3.364;2024-02-21T12:02:11;21.73;;;3.92;;
79526;SDS011;68974;47.754;-3.364;2024-02-21T12:04:37;17.83;;;3.72;;
79526;SDS011;68974;47.754;-3.364;2024-02-21T12:07:03;21.13;;;4.63;;
79526;SDS011;68974;47.754;-3.364;2024-02-21T12:09:29;20.23;;;4.38;;
79526;SDS011;68974;47.754;-3.364;2024-02-21T12:11:59;14.82;;;4.47;;
79526;SDS011;68974;47.754;-3.364;2024-02-21T12:14:25;20.80;;;4.07;;
79526;SDS011;68974;47.754;-3.364;2024-02-21T12:16:53;20.70;;;4.80;;
79526;SDS011;68974;47.754;-3.364;2024-02-21T12:19:19;19.63;;;3.58;;
79526;SDS011;68974;47.754;-3.364;2024-02-21T12:21:44;17.70;;;4.13;;
79526;SDS011;68974;47.754;-3.364;2024-02-21T12:26:50;30.75;;;4.72;;
79526;SDS011;68974;47.754;-3.364;2024-02-21T12:31:42;19.73;;;4.38;;
79526;SDS011;68974;47.754;-3.364;2024-02-21T12:34:08;18.92;;;3.67;;
79526;SDS011;68974;47.754;-3.364;2024-02-21T12:36:36;19.80;;;3.45;;
79526;SDS011;68974;47.754;-3.364;2024-02-21T12:39:06;30.70;;;4.32;;
79526;SDS011;68974;47.754;-3.364;2024-02-21T12:41:33;29.00;;;6.65;;
79526;SDS011;68974;47.754;-3.364;2024-02-21T12:44:00;12.93;;;4.07;;
79526;SDS011;68974;47.754;-3.364;2024-02-21T12:46:26;21.15;;;5.53;;
79526;SDS011;68974;47.754;-3.364;2024-02-21T12:48:51;24.17;;;4.85;;
79526;SDS011;68974;47.754;-3.364;2024-02-21T12:51:16;23.15;;;4.47;;
79526;SDS011;68974;47.754;-3.364;2024-02-21T12:53:46;15.25;;;2.55;;
79526;SDS011;68974;47.754;-3.364;2024-02-21T12:56:14;22.98;;;4.50;;
79526;SDS011;68974;47.754;-3.364;2024-02-21T12:58:40;16.63;;;3.85;;
79526;SDS011;68974;47.754;-3.364;2024-02-21T13:01:05;15.27;;;3.72;;
79526;SDS011;68974;47.754;-3.364;2024-02-21T13:03:31;16.60;;;3.67;;
79526;SDS011;68974;47.754;-3.364;2024-02-21T13:05:56;22.25;;;5.35;;
79526;SDS011;68974;47.754;-3.364;2024-02-21T13:08:22;14.77;;;3.40;;
79526;SDS011;68974;47.754;-3.364;2024-02-21T13:10:48;19.75;;;4.18;;
79526;SDS011;68974;47.754;-3.364;2024-02-21T13:13:14;26.00;;;3.83;;
79526;SDS011;68974;47.754;-3.364;2024-02-21T13:15:39;20.15;;;3.50;;
79526;SDS011;68974;47.754;-3.364;2024-02-21T13:18:08;22.70;;;3.47;;
79526;SDS011;68974;47.754;-3.364;2024-02-21T13:20:33;25.30;;;4.20;;
79526;SDS011;68974;47.754;-3.364;2024-02-21T13:22:59;18.67;;;3.55;;
79526;SDS011;68974;47.754;-3.364;2024-02-21T13:25:24;18.85;;;4.93;;
79526;SDS011;68974;47.754;-3.364;2024-02-21T13:27:50;22.73;;;4.00;;
79526;SDS011;68974;47.754;-3.364;2024-02-21T13:30:16;18.65;;;3.58;;
79526;SDS011;68974;47.754;-3.364;2024-02-21T13:32:43;19.80;;;3.25;;
79526;SDS011;68974;47.754;-3.364;2024-02-21T13:35:11;18.02;;;3.97;;
79526;SDS011;68974;47.754;-3.364;2024-02-21T13:37:38;16.27;;;2.80;;
79526;SDS011;68974;47.754;-3.364;2024-02-21T13:40:04;22.50;;;3.67;;
79526;SDS011;68974;47.754;-3.364;2024-02-21T13:42:30;22.05;;;3.45;;
79526;SDS011;68974;47.754;-3.364;2024-02-21T13:44:56;24.75;;;4.97;;
79526;SDS011;68974;47.754;-3.364;2024-02-21T13:47:21;18.35;;;3.83;;
79526;SDS011;68974;47.754;-3.364;2024-02-21T13:49:47;12.90;;;3.70;;
79526;SDS011;68974;47.754;-3.364;2024-02-21T13:52:13;19.48;;;3.63;;
79526;SDS011;68974;47.754;-3.364;2024-02-21T13:54:39;18.42;;;3.20;;
79526;SDS011;68974;47.754;-3.364;2024-02-21T13:57:04;18.48;;;4.22;;
79526;SDS011;68974;47.754;-3.364;2024-02-21T13:59:30;16.88;;;3.58;;
79526;SDS011;68974;47.754;-3.364;2024-02-21T14:01:55;16.27;;;3.35;;
79526;SDS011;68974;47.754;-3.364;2024-02-21T14:04:21;19.33;;;3.00;;
79526;SDS011;68974;47.754;-3.364;2024-02-21T14:06:48;15.10;;;3.15;;
79526;SDS011;68974;47.754;-3.364;2024-02-21T14:09:13;15.50;;;3.25;;
79526;SDS011;68974;47.754;-3.364;2024-02-21T14:11:39;19.00;;;4.18;;
79526;SDS011;68974;47.754;-3.364;2024-02-21T14:14:06;27.70;;;6.63;;
79526;SDS011;68974;47.754;-3.364;2024-02-21T14:16:32;26.13;;;5.68;;
79526;SDS011;68974;47.754;-3.364;2024-02-21T14:18:57;19.60;;;3.65;;
79526;SDS011;68974;47.754;-3.364;2024-02-21T14:21:23;18.23;;;3.10;;
79526;SDS011;68974;47.754;-3.364;2024-02-21T14:23:48;20.50;;;2.83;;
79526;SDS011;68974;47.754;-3.364;2024-02-21T14:26:14;18.30;;;3.03;;
79526;SDS011;68974;47.754;-3.364;2024-02-21T14:28:40;15.93;;;3.08;;
79526;SDS011;68974;47.754;-3.364;2024-02-21T14:31:06;17.17;;;2.90;;
79526;SDS011;68974;47.754;-3.364;2024-02-21T14:36:02;17.92;;;2.50;;